Time;durP1;ratioP1;P1;durP2;ratioP2;P2;SDS_P1;SDS_P2;PMS_P1;PMS_P2;Temp;Humidity;BMP_temperature;BMP_pressure;BME280_temperature;BME280_humidity;BME280_pressure;Samples;Min_cycle;Max_cycle;Signal;HPM_P1;HPM_P2
2022/07/30 00:02:12;;;;;;;2.20;2.00;;;25.80;47.50;;;;;;5030471;28;20452;-48
2022/07/30 00:04:40;;;;;;;1.73;1.63;;;25.80;47.50;;;;;;5031087;28;20543;-48
2022/07/30 00:07:08;;;;;;;2.00;1.90;;;25.80;47.50;;;;;;5077703;22;21020;-48
2022/07/30 00:09:36;;;;;;;2.10;2.00;;;25.80;47.50;;;;;;5004823;28;20489;-48
2022/07/30 00:12:05;;;;;;;2.20;2.10;;;25.80;47.60;;;;;;5004639;28;20473;-48
2022/07/30 00:14:34;;;;;;;2.17;2.07;;;25.80;47.50;;;;;;5011361;28;20465;-47
2022/07/30 00:17:03;;;;;;;2.53;1.93;;;25.80;47.60;;;;;;5000933;28;20984;-47
2022/07/30 00:19:34;;;;;;;2.30;2.20;;;25.80;47.60;;;;;;4999961;28;20473;-46
2022/07/30 00:22:21;;;;;;;2.10;2.00;;;25.80;47.50;;;;;;4987727;28;20922;-48
2022/07/30 00:25:08;;;;;;;2.20;2.10;;;25.80;47.60;;;;;;5008950;28;21051;-49
2022/07/30 00:27:54;;;;;;;2.17;2.07;;;25.80;47.50;;;;;;5008882;28;20455;-47
2022/07/30 00:30:23;;;;;;;2.10;2.00;;;25.80;47.50;;;;;;5005604;28;20477;-48
2022/07/30 00:32:51;;;;;;;2.10;2.00;;;25.80;47.50;;;;;;4991349;28;20445;-51
2022/07/30 00:35:21;;;;;;;1.60;1.50;;;25.80;47.50;;;;;;5000878;28;20481;-50
2022/07/30 00:37:49;;;;;;;2.30;2.17;;;25.80;47.50;;;;;;5003572;28;20440;-49
2022/07/30 00:40:17;;;;;;;2.07;1.97;;;25.80;47.50;;;;;;5005410;28;20470;-46
2022/07/30 00:42:47;;;;;;;1.70;1.60;;;25.80;47.40;;;;;;4999548;28;20452;-49
2022/07/30 00:45:17;;;;;;;2.10;2.00;;;25.70;47.40;;;;;;5004974;28;20473;-48
2022/07/30 00:47:45;;;;;;;1.80;1.70;;;25.80;47.50;;;;;;4994349;28;20466;-51
2022/07/30 00:50:15;;;;;;;2.37;2.20;;;25.80;47.50;;;;;;5000279;28;20508;-50
2022/07/30 00:52:45;;;;;;;2.57;2.37;;;25.80;47.30;;;;;;5013161;28;20511;-48
2022/07/30 00:55:15;;;;;;;1.90;1.80;;;25.80;47.20;;;;;;4993746;28;20485;-50
2022/07/30 00:57:43;;;;;;;2.23;2.00;;;25.70;47.20;;;;;;5011077;28;20486;-48
2022/07/30 01:00:15;;;;;;;2.13;2.03;;;25.80;47.20;;;;;;5025946;28;20911;-50
2022/07/30 01:02:43;;;;;;;1.97;1.83;;;25.80;47.30;;;;;;5006613;28;20421;-47
2022/07/30 01:05:13;;;;;;;2.33;2.13;;;25.70;47.20;;;;;;5002738;28;20852;-49
2022/07/30 01:07:41;;;;;;;2.40;2.20;;;25.70;47.20;;;;;;4980492;28;20458;-47
2022/07/30 01:10:12;;;;;;;2.30;2.10;;;25.70;47.30;;;;;;4995639;28;20477;-46
2022/07/30 01:12:42;;;;;;;2.20;2.10;;;25.70;47.20;;;;;;5008711;28;20472;-49
2022/07/30 01:15:11;;;;;;;1.87;1.77;;;25.70;47.30;;;;;;5004441;28;20487;-51
2022/07/30 01:17:40;;;;;;;2.37;2.17;;;25.70;47.30;;;;;;5011596;28;20511;-48
2022/07/30 01:20:10;;;;;;;2.03;1.80;;;25.70;47.30;;;;;;4999982;28;20900;-48
2022/07/30 01:22:52;;;;;;;2.47;2.37;;;25.70;47.30;;;;;;5005578;28;20433;-48
2022/07/30 01:25:30;;;;;;;1.90;1.80;;;25.70;47.20;;;;;;5012778;28;20578;-47
2022/07/30 01:28:05;;;;;;;1.60;1.50;;;25.70;47.30;;;;;;5002205;28;20457;-49
2022/07/30 01:30:38;;;;;;;1.93;1.83;;;25.70;47.30;;;;;;5007080;28;20494;-47
2022/07/30 01:33:10;;;;;;;2.00;1.90;;;25.70;47.20;;;;;;5008846;28;20484;-50
2022/07/30 01:35:40;;;;;;;2.40;2.20;;;25.70;47.40;;;;;;4984247;28;21075;-49
2022/07/30 01:38:10;;;;;;;2.63;2.43;;;25.70;47.30;;;;;;5002125;28;20552;-47
2022/07/30 01:40:39;;;;;;;2.10;2.00;;;25.70;47.30;;;;;;5002184;28;20472;-51
2022/07/30 01:43:09;;;;;;;1.73;1.60;;;25.70;47.40;;;;;;5000625;28;20849;-48
2022/07/30 01:45:38;;;;;;;2.37;2.17;;;25.70;47.30;;;;;;5002510;28;20577;-47
2022/07/30 01:48:13;;;;;;;2.03;1.83;;;25.70;47.30;;;;;;4983756;28;20500;-48
2022/07/30 01:50:45;;;;;;;2.80;2.60;;;25.70;47.30;;;;;;4999695;28;20474;-47
2022/07/30 01:53:17;;;;;;;2.57;2.37;;;25.70;47.30;;;;;;5019738;28;20430;-48
2022/07/30 01:55:46;;;;;;;2.30;2.10;;;25.70;47.30;;;;;;4991362;28;20882;-48
2022/07/30 01:58:18;;;;;;;2.30;2.20;;;25.70;47.30;;;;;;5003195;28;20465;-47
2022/07/30 02:00:54;;;;;;;1.70;1.60;;;25.70;47.40;;;;;;4990930;28;20576;-48
2022/07/30 02:03:23;;;;;;;2.43;2.23;;;25.70;47.30;;;;;;4983747;28;20452;-48
2022/07/30 02:05:58;;;;;;;2.30;2.07;;;25.70;47.30;;;;;;5003069;28;20478;-48
2022/07/30 02:08:34;;;;;;;1.90;1.80;;;25.70;47.30;;;;;;4995724;28;20468;-48
2022/07/30 02:11:09;;;;;;;2.23;2.03;;;25.70;47.20;;;;;;4994307;28;20469;-49
2022/07/30 02:13:50;;;;;;;1.90;1.80;;;25.70;47.20;;;;;;4999059;28;20438;-51
2022/07/30 02:16:24;;;;;;;2.70;2.50;;;25.70;47.20;;;;;;4988400;28;20433;-48
2022/07/30 02:19:01;;;;;;;2.30;2.20;;;25.70;47.20;;;;;;5014468;28;20564;-49
2022/07/30 02:21:40;;;;;;;2.33;2.13;;;25.70;47.20;;;;;;4990568;28;20539;-47
2022/07/30 02:24:22;;;;;;;2.40;2.20;;;25.70;47.30;;;;;;4980172;28;20905;-48
2022/07/30 02:26:56;;;;;;;2.10;2.00;;;25.60;47.10;;;;;;5002700;28;20441;-48
2022/07/30 02:29:27;;;;;;;1.90;1.80;;;25.70;47.20;;;;;;5002071;28;20527;-49
2022/07/30 02:31:59;;;;;;;2.70;2.50;;;25.70;47.20;;;;;;4985075;28;20515;-49
2022/07/30 02:34:29;;;;;;;2.00;1.90;;;25.60;47.10;;;;;;5005799;28;20460;-49
2022/07/30 02:36:59;;;;;;;1.93;1.83;;;25.70;47.30;;;;;;5008330;28;20469;-48
2022/07/30 02:39:29;;;;;;;1.93;1.83;;;25.70;47.40;;;;;;5002140;28;20552;-48
2022/07/30 02:41:58;;;;;;;2.20;2.10;;;25.60;47.20;;;;;;5006786;28;20465;-49
2022/07/30 02:44:30;;;;;;;2.30;2.20;;;25.60;47.20;;;;;;5005840;28;20456;-48
2022/07/30 02:46:59;;;;;;;2.30;2.10;;;25.60;47.10;;;;;;5013801;28;20452;-47
2022/07/30 02:50:09;;;;;;;2.03;1.93;;;25.60;47.10;;;;;;4994027;28;20457;-48
2022/07/30 02:52:41;;;;;;;2.00;1.90;;;25.60;47.10;;;;;;5010874;28;20449;-48
2022/07/30 02:55:11;;;;;;;1.90;1.80;;;25.60;47.20;;;;;;5013757;28;20452;-48
2022/07/30 02:57:42;;;;;;;2.00;1.90;;;25.60;47.20;;;;;;4990626;28;20457;-48
2022/07/30 03:00:14;;;;;;;2.10;2.00;;;25.60;47.20;;;;;;5006207;28;20479;-49
2022/07/30 03:02:44;;;;;;;2.87;2.67;;;25.60;47.20;;;;;;5004159;28;20988;-47
2022/07/30 03:05:15;;;;;;;2.50;2.40;;;25.60;47.20;;;;;;4987681;28;20476;-49
2022/07/30 03:07:44;;;;;;;1.97;1.87;;;25.60;47.20;;;;;;4985247;28;20461;-47
2022/07/30 03:10:13;;;;;;;2.17;2.03;;;25.60;47.20;;;;;;4983256;28;20477;-49
2022/07/30 03:12:44;;;;;;;2.30;2.20;;;25.60;47.40;;;;;;4984188;28;20446;-49
2022/07/30 03:15:14;;;;;;;2.40;2.20;;;25.60;47.20;;;;;;5003364;28;20476;-49
2022/07/30 03:17:46;;;;;;;2.13;2.03;;;25.60;47.30;;;;;;4995535;28;20502;-49
2022/07/30 03:20:18;;;;;;;1.90;1.77;;;25.60;47.30;;;;;;5002403;28;20465;-49
2022/07/30 03:22:50;;;;;;;1.63;1.47;;;25.60;47.30;;;;;;4991033;28;20915;-51
2022/07/30 03:25:22;;;;;;;2.33;2.10;;;25.50;47.20;;;;;;4999705;28;20473;-48
2022/07/30 03:27:53;;;;;;;1.93;1.83;;;25.60;47.30;;;;;;4992008;28;20544;-48
2022/07/30 03:30:24;;;;;;;2.50;2.30;;;25.60;47.20;;;;;;5002254;28;20560;-48
2022/07/30 03:32:55;;;;;;;2.00;1.90;;;25.50;47.30;;;;;;5004675;28;20992;-48
2022/07/30 03:35:25;;;;;;;2.20;2.00;;;25.50;47.30;;;;;;4985233;28;20910;-47
2022/07/30 03:37:56;;;;;;;1.80;1.70;;;25.60;47.20;;;;;;4993226;28;20465;-48
2022/07/30 03:40:26;;;;;;;2.50;2.30;;;25.50;47.30;;;;;;5005712;28;21073;-48
2022/07/30 03:42:55;;;;;;;2.10;2.00;;;25.50;47.30;;;;;;5003176;28;20954;-47
2022/07/30 03:45:26;;;;;;;2.80;2.60;;;25.50;47.30;;;;;;4982592;28;21037;-50
2022/07/30 03:48:02;;;;;;;1.80;1.70;;;25.50;47.30;;;;;;5009070;28;20968;-47
2022/07/30 03:50:34;;;;;;;2.43;2.23;;;25.50;47.30;;;;;;5001737;28;20480;-49
2022/07/30 03:53:03;;;;;;;2.50;2.30;;;25.50;47.20;;;;;;4995166;28;20445;-48
2022/07/30 03:55:36;;;;;;;2.13;1.93;;;25.50;47.20;;;;;;4982869;28;20468;-48
2022/07/30 03:58:27;;;;;;;2.00;1.90;;;25.50;47.30;;;;;;4999520;28;20475;-48
2022/07/30 04:01:06;;;;;;;3.00;2.00;;;25.50;47.30;;;;;;4994999;28;20972;-50
2022/07/30 04:03:36;;;;;;;2.20;2.10;;;25.40;47.10;;;;;;4998697;28;20475;-48
2022/07/30 04:06:06;;;;;;;1.83;1.73;;;25.40;47.20;;;;;;4995431;28;20963;-48
2022/07/30 04:08:34;;;;;;;2.00;1.90;;;25.50;48.40;;;;;;5002406;28;20469;-48
2022/07/30 04:11:03;;;;;;;2.37;2.17;;;25.50;47.30;;;;;;5000494;28;20858;-50
2022/07/30 04:13:51;;;;;;;2.03;1.77;;;25.40;47.20;;;;;;4997327;28;20466;-47
2022/07/30 04:16:31;;;;;;;2.80;2.20;;;25.50;48.60;;;;;;5006739;28;20447;-47
2022/07/30 04:19:16;;;;;;;1.67;1.57;;;25.40;47.20;;;;;;4998384;28;20896;-49
2022/07/30 04:21:46;;;;;;;2.57;2.37;;;25.40;47.20;;;;;;4994304;28;20439;-48
2022/07/30 04:24:17;;;;;;;1.60;1.50;;;25.50;47.30;;;;;;5011006;28;20488;-46
2022/07/30 04:26:47;;;;;;;3.43;2.20;;;25.40;47.30;;;;;;5002422;28;20525;-48
2022/07/30 04:29:16;;;;;;;1.80;1.70;;;25.40;47.20;;;;;;4991971;28;20599;-48
2022/07/30 04:31:54;;;;;;;2.33;2.13;;;25.40;47.50;;;;;;5017328;28;20451;-46
2022/07/30 04:34:32;;;;;;;2.40;2.20;;;25.40;47.20;;;;;;5004244;28;20465;-48
2022/07/30 04:37:02;;;;;;;2.00;1.90;;;25.40;47.30;;;;;;5006079;28;20465;-47
2022/07/30 04:39:31;;;;;;;1.83;1.73;;;25.40;47.30;;;;;;4999591;28;20465;-49
2022/07/30 04:42:00;;;;;;;2.83;2.30;;;25.40;47.50;;;;;;5007628;28;20463;-47
2022/07/30 04:44:36;;;;;;;2.30;2.20;;;25.40;47.30;;;;;;4991015;28;20576;-49
2022/07/30 04:47:41;;;;;;;2.40;2.20;;;25.40;47.30;;;;;;4979092;28;20468;-49
2022/07/30 04:50:29;;;;;;;2.67;2.47;;;25.40;47.40;;;;;;5002692;28;21042;-48
2022/07/30 04:52:58;;;;;;;1.90;1.80;;;25.40;47.30;;;;;;4993996;28;20819;-47
2022/07/30 04:55:31;;;;;;;2.20;2.00;;;25.30;47.30;;;;;;4982222;28;20469;-51
2022/07/30 04:58:01;;;;;;;2.00;1.90;;;25.30;47.20;;;;;;5010824;28;20456;-50
2022/07/30 05:00:35;;;;;;;7.33;3.03;;;25.40;47.30;;;;;;4983434;28;20469;-48
2022/07/30 05:03:15;;;;;;;1.97;1.87;;;25.40;47.20;;;;;;4991310;28;20468;-47
2022/07/30 05:05:51;;;;;;;2.07;1.87;;;25.30;47.20;;;;;;4991635;28;20465;-47
2022/07/30 05:08:28;;;;;;;2.07;1.97;;;25.30;47.40;;;;;;4985476;28;20464;-48
2022/07/30 05:11:00;;;;;;;2.50;2.30;;;25.30;47.30;;;;;;5003031;28;20464;-50
2022/07/30 05:13:28;;;;;;;2.70;2.50;;;25.30;47.30;;;;;;4989527;28;20429;-48
2022/07/30 05:16:08;;;;;;;1.97;1.87;;;25.30;47.10;;;;;;4993136;28;20453;-50
2022/07/30 05:18:38;;;;;;;2.53;2.33;;;25.30;47.30;;;;;;4990471;28;20893;-49
2022/07/30 05:21:07;;;;;;;3.10;2.57;;;25.30;47.30;;;;;;5003832;28;20458;-48
2022/07/30 05:23:44;;;;;;;2.27;2.13;;;25.30;47.20;;;;;;4999766;28;20461;-50
2022/07/30 05:26:38;;;;;;;2.53;2.33;;;25.30;47.30;;;;;;4999848;28;20452;-48
2022/07/30 05:29:10;;;;;;;3.03;2.83;;;25.30;47.30;;;;;;4985974;28;20477;-48
2022/07/30 05:31:53;;;;;;;2.27;2.17;;;25.30;47.30;;;;;;4991157;28;20442;-48
2022/07/30 05:34:29;;;;;;;2.30;2.20;;;25.20;47.30;;;;;;4990739;28;20470;-48
2022/07/30 05:36:57;;;;;;;2.90;2.70;;;25.20;47.40;;;;;;4981758;28;20532;-48
2022/07/30 05:39:26;;;;;;;2.13;2.03;;;25.30;47.20;;;;;;5005596;28;20470;-47
2022/07/30 05:42:17;;;;;;;2.80;2.60;;;25.20;47.30;;;;;;4995074;28;21011;-48
2022/07/30 05:44:51;;;;;;;2.20;2.10;;;25.30;47.40;;;;;;4989824;28;20552;-48
2022/07/30 05:47:20;;;;;;;2.20;2.10;;;25.30;47.40;;;;;;5001734;28;20449;-47
2022/07/30 05:49:51;;;;;;;3.60;3.27;;;25.20;47.30;;;;;;4991338;28;20481;-47
2022/07/30 05:52:19;;;;;;;2.33;2.23;;;25.20;47.40;;;;;;4999889;28;20440;-48
2022/07/30 05:54:47;;;;;;;2.77;2.57;;;25.20;47.30;;;;;;4998981;28;21018;-49
2022/07/30 05:57:24;;;;;;;2.70;2.50;;;25.20;47.50;;;;;;4999350;28;20609;-46
2022/07/30 05:59:53;;;;;;;3.63;2.33;;;25.20;47.30;;;;;;4987092;28;20539;-45
2022/07/30 06:02:31;;;;;;;3.47;3.17;;;25.30;47.50;;;;;;5013064;28;20943;-49
2022/07/30 06:05:19;;;;;;;3.60;3.30;;;25.20;47.40;;;;;;4994889;28;20477;-48
2022/07/30 06:07:48;;;;;;;5.00;3.77;;;25.20;47.40;;;;;;4989019;28;20950;-47
2022/07/30 06:10:19;;;;;;;3.40;3.13;;;25.20;47.30;;;;;;5012382;28;20488;-47
2022/07/30 06:12:48;;;;;;;3.83;3.53;;;25.20;47.50;;;;;;5009391;28;20444;-48
2022/07/30 06:15:18;;;;;;;4.50;3.50;;;25.20;47.60;;;;;;5043697;22;20476;-47
2022/07/30 06:17:53;;;;;;;3.17;2.87;;;25.10;47.50;;;;;;5037526;28;20547;-46
2022/07/30 06:20:53;;;;;;;3.00;2.67;;;25.20;47.60;;;;;;4996798;28;21049;-47
2022/07/30 06:23:27;;;;;;;3.13;2.87;;;25.20;47.60;;;;;;5033830;28;20484;-46
2022/07/30 06:26:08;;;;;;;3.33;3.03;;;25.20;47.60;;;;;;5023833;28;20426;-47
2022/07/30 06:28:37;;;;;;;4.53;3.77;;;25.10;47.50;;;;;;5002865;28;20875;-46
2022/07/30 06:31:33;;;;;;;3.27;3.07;;;25.10;48.60;;;;;;4996343;28;20456;-46
2022/07/30 06:34:01;;;;;;;3.33;3.00;;;25.20;47.70;;;;;;4998803;28;20890;-46
2022/07/30 06:36:37;;;;;;;3.57;3.17;;;25.10;47.50;;;;;;5014349;28;20480;-47
2022/07/30 06:39:11;;;;;;;2.77;2.57;;;25.10;47.60;;;;;;4999025;28;20544;-46
2022/07/30 06:42:10;;;;;;;6.20;4.10;;;25.10;47.60;;;;;;4993466;28;20484;-49
2022/07/30 06:44:56;;;;;;;5.43;4.40;;;25.10;47.70;;;;;;4996828;28;20468;-48
2022/07/30 06:47:28;;;;;;;3.37;3.13;;;25.10;47.70;;;;;;4990795;28;20461;-48
2022/07/30 06:49:58;;;;;;;5.13;4.73;;;25.10;47.70;;;;;;5010009;28;20517;-48
2022/07/30 06:52:29;;;;;;;4.03;3.70;;;25.10;47.80;;;;;;4998993;28;20446;-48
2022/07/30 06:54:58;;;;;;;4.60;4.20;;;25.10;47.80;;;;;;5037619;28;21044;-48
2022/07/30 06:57:31;;;;;;;4.00;3.70;;;25.10;47.80;;;;;;5022149;28;20468;-48
2022/07/30 07:00:12;;;;;;;3.50;2.97;;;25.10;47.80;;;;;;5015489;28;20470;-48
2022/07/30 07:02:44;;;;;;;3.20;3.00;;;25.10;47.90;;;;;;5007836;28;20445;-48
2022/07/30 07:05:13;;;;;;;4.37;3.97;;;25.10;47.80;;;;;;4985532;28;20470;-48
2022/07/30 07:07:48;;;;;;;6.33;3.90;;;25.10;47.80;;;;;;4994398;28;20467;-46
2022/07/30 07:10:33;;;;;;;4.00;3.40;;;25.10;47.90;;;;;;5013927;28;20463;-47
2022/07/30 07:13:13;;;;;;;4.17;3.80;;;25.10;47.90;;;;;;4992431;28;20445;-48
2022/07/30 07:15:42;;;;;;;6.10;3.83;;;25.10;48.00;;;;;;4987190;28;20556;-48
2022/07/30 07:18:15;;;;;;;4.47;4.10;;;25.10;47.90;;;;;;5036046;28;20473;-47
2022/07/30 07:20:50;;;;;;;5.33;4.83;;;25.10;48.00;;;;;;4999763;28;20543;-47
2022/07/30 07:23:20;;;;;;;4.47;4.07;;;25.10;48.10;;;;;;5002977;28;20532;-48
2022/07/30 07:25:52;;;;;;;3.77;3.37;;;25.00;48.10;;;;;;5003341;28;20457;-48
2022/07/30 07:28:20;;;;;;;4.80;4.10;;;25.00;48.10;;;;;;5028757;28;20996;-47
2022/07/30 07:31:00;;;;;;;4.33;4.00;;;25.00;49.20;;;;;;4997508;28;20525;-48
2022/07/30 07:33:29;;;;;;;4.00;3.60;;;25.00;48.10;;;;;;5039341;28;20434;-46
2022/07/30 07:35:58;;;;;;;4.97;4.50;;;25.00;48.20;;;;;;4989736;28;20456;-45
2022/07/30 07:38:32;;;;;;;8.10;7.30;;;25.00;48.10;;;;;;5022004;28;20471;-48
2022/07/30 07:41:00;;;;;;;12.27;10.53;;;25.00;48.30;;;;;;5044485;28;20670;-48
2022/07/30 07:43:29;;;;;;;11.37;8.50;;;24.90;48.50;;;;;;4988369;28;20450;-48
2022/07/30 07:45:59;;;;;;;9.90;8.87;;;24.90;48.60;;;;;;4989828;28;20425;-48
2022/07/30 07:48:38;;;;;;;11.10;9.33;;;24.90;48.60;;;;;;5001622;28;21010;-48
2022/07/30 07:51:21;;;;;;;10.80;9.37;;;24.90;48.80;;;;;;5034783;28;20449;-48
2022/07/30 07:54:14;;;;;;;13.37;9.17;;;24.80;48.80;;;;;;4991517;28;20848;-48
2022/07/30 07:56:54;;;;;;;12.33;9.67;;;24.80;49.00;;;;;;5001272;28;20457;-48
2022/07/30 07:59:34;;;;;;;8.90;8.03;;;24.80;49.00;;;;;;4989348;28;21015;-48
2022/07/30 08:02:11;;;;;;;8.80;7.90;;;24.80;49.10;;;;;;5013394;28;20451;-48
2022/07/30 08:04:53;;;;;;;9.77;8.73;;;24.70;49.10;;;;;;4998390;28;20551;-49
2022/07/30 08:07:41;;;;;;;10.13;8.50;;;24.70;49.10;;;;;;4993312;28;20464;-49
2022/07/30 08:10:29;;;;;;;10.80;8.90;;;24.70;49.10;;;;;;5008019;28;20474;-48
2022/07/30 08:13:16;;;;;;;13.57;8.60;;;24.70;49.10;;;;;;5002800;28;20869;-48
2022/07/30 08:16:31;;;;;;;10.83;9.73;;;24.70;49.10;;;;;;4965507;28;20478;-48
2022/07/30 08:19:18;;;;;;;11.63;9.77;;;24.70;48.90;;;;;;4986092;28;20466;-48
2022/07/30 08:21:58;;;;;;;10.13;8.43;;;24.70;48.60;;;;;;4987241;28;20444;-49
2022/07/30 08:24:30;;;;;;;12.13;10.17;;;24.70;48.30;;;;;;4988482;28;20473;-48
2022/07/30 08:27:00;;;;;;;13.50;9.70;;;24.80;48.20;;;;;;4989675;28;20826;-49
2022/07/30 08:29:29;;;;;;;9.50;7.77;;;24.80;48.30;;;;;;4994279;28;20469;-48
2022/07/30 08:31:58;;;;;;;10.67;7.53;;;24.80;48.20;;;;;;4993721;28;20970;-48
2022/07/30 08:34:28;;;;;;;8.60;7.57;;;24.80;48.10;;;;;;4993806;28;21004;-48
2022/07/30 08:36:57;;;;;;;9.50;8.60;;;24.80;48.10;;;;;;5017064;28;20965;-49
2022/07/30 08:39:27;;;;;;;10.23;9.23;;;24.90;48.10;;;;;;5026807;28;20493;-47
2022/07/30 08:42:17;;;;;;;10.43;7.93;;;24.90;47.90;;;;;;5023318;28;20470;-48
2022/07/30 08:44:53;;;;;;;11.97;8.37;;;24.80;47.90;;;;;;4988817;28;20564;-48
2022/07/30 08:47:28;;;;;;;9.67;7.83;;;24.80;47.90;;;;;;4982094;28;20478;-48
2022/07/30 08:50:07;;;;;;;13.30;8.77;;;24.80;47.70;;;;;;4990893;28;20469;-49
2022/07/30 08:52:43;;;;;;;9.80;7.13;;;24.80;47.70;;;;;;5010673;28;20442;-48
2022/07/30 08:55:11;;;;;;;7.80;7.10;;;24.80;47.80;;;;;;4991619;28;20563;-48
2022/07/30 08:57:42;;;;;;;10.17;8.00;;;24.80;47.60;;;;;;5043717;28;20449;-49
2022/07/30 09:00:14;;;;;;;8.50;7.57;;;24.80;47.50;;;;;;4989421;28;20481;-48
2022/07/30 09:02:43;;;;;;;8.90;8.00;;;24.80;47.50;;;;;;4993142;28;20442;-48
2022/07/30 09:05:13;;;;;;;9.40;7.57;;;24.80;47.30;;;;;;4995270;28;20564;-48
2022/07/30 09:07:42;;;;;;;8.17;6.83;;;24.70;47.10;;;;;;5004459;28;20449;-49
2022/07/30 09:10:18;;;;;;;7.33;6.63;;;24.70;47.30;;;;;;5029425;28;20520;-48
2022/07/30 09:12:48;;;;;;;9.97;7.63;;;24.70;47.20;;;;;;5001884;28;20442;-48
2022/07/30 09:15:18;;;;;;;8.70;7.43;;;24.70;47.10;;;;;;5026133;28;20489;-48
2022/07/30 09:17:55;;;;;;;7.20;6.50;;;24.70;47.00;;;;;;4993820;28;20961;-48
2022/07/30 09:20:26;;;;;;;7.10;6.50;;;24.70;46.90;;;;;;4980656;28;20780;-47
2022/07/30 09:22:55;;;;;;;10.43;7.37;;;24.70;47.10;;;;;;4999790;28;20450;-47
2022/07/30 09:25:48;;;;;;;10.23;7.67;;;24.70;47.20;;;;;;4967219;28;20473;-48
2022/07/30 09:28:36;;;;;;;7.57;6.20;;;24.70;47.00;;;;;;5003771;28;20975;-48
2022/07/30 09:31:23;;;;;;;8.77;7.47;;;24.70;47.20;;;;;;4997863;28;20986;-49
2022/07/30 09:34:24;;;;;;;8.70;7.40;;;24.60;47.00;;;;;;5005640;28;20563;-49
2022/07/30 09:37:16;;;;;;;8.47;7.00;;;24.70;47.30;;;;;;4986061;28;20466;-49
2022/07/30 09:39:56;;;;;;;10.50;7.20;;;24.70;46.80;;;;;;4995946;28;21060;-49
2022/07/30 09:42:45;;;;;;;8.03;7.23;;;24.60;46.80;;;;;;4985935;28;20459;-49
2022/07/30 09:45:16;;;;;;;8.43;6.90;;;24.60;48.10;;;;;;5025238;28;20479;-49
2022/07/30 09:47:49;;;;;;;9.52;8.52;;;24.60;46.90;;;;;;5023185;28;20455;-49
2022/07/30 09:50:20;;;;;;;6.83;6.17;;;24.60;47.20;;;;;;4985388;28;21642;-49
2022/07/30 09:53:06;;;;;;;7.67;5.90;;;24.50;47.10;;;;;;4994161;28;20480;-49
2022/07/30 09:55:40;;;;;;;8.30;6.33;;;24.50;47.10;;;;;;5007641;28;21010;-48
2022/07/30 09:58:12;;;;;;;5.53;5.03;;;24.50;47.10;;;;;;4990819;28;20557;-48
2022/07/30 10:00:57;;;;;;;6.67;6.17;;;24.50;47.00;;;;;;4991522;28;20477;-47
2022/07/30 10:03:52;;;;;;;9.60;6.67;;;24.50;47.00;;;;;;4974226;28;20477;-48
2022/07/30 10:06:43;;;;;;;9.93;6.27;;;24.60;47.20;;;;;;4978428;28;20486;-48
2022/07/30 10:09:28;;;;;;;5.63;5.13;;;24.60;46.90;;;;;;4990341;28;20458;-48
2022/07/30 10:11:58;;;;;;;7.13;6.43;;;24.60;47.00;;;;;;5006427;28;20525;-48
2022/07/30 10:14:32;;;;;;;6.17;5.57;;;24.60;46.90;;;;;;5021260;28;20893;-48
2022/07/30 10:17:05;;;;;;;8.50;6.70;;;24.60;46.90;;;;;;5020836;28;20465;-49
2022/07/30 10:19:36;;;;;;;7.10;5.90;;;24.50;46.70;;;;;;4991796;28;20530;-48
2022/07/30 10:22:28;;;;;;;6.63;5.97;;;24.60;46.90;;;;;;5000485;28;20963;-48
2022/07/30 10:25:18;;;;;;;7.00;5.90;;;24.60;46.70;;;;;;5007961;28;21070;-49
2022/07/30 10:28:09;;;;;;;6.40;5.80;;;24.60;46.50;;;;;;4997437;28;20560;-49
2022/07/30 10:30:37;;;;;;;6.60;5.90;;;24.60;46.50;;;;;;4998346;28;20569;-53
2022/07/30 10:33:08;;;;;;;7.40;6.03;;;24.60;46.40;;;;;;4997815;28;20444;-48
2022/07/30 10:35:57;;;;;;;7.30;5.73;;;24.60;46.20;;;;;;4979694;28;20458;-48
2022/07/30 10:38:31;;;;;;;9.37;5.80;;;24.60;46.30;;;;;;4997634;28;20455;-48
2022/07/30 10:41:05;;;;;;;9.20;6.33;;;24.60;46.10;;;;;;4993424;28;20867;-48
2022/07/30 10:43:59;;;;;;;6.87;5.60;;;24.60;45.90;;;;;;4992495;28;21008;-48
2022/07/30 10:46:44;;;;;;;7.23;5.20;;;24.70;45.90;;;;;;4987617;28;20480;-48
2022/07/30 10:49:16;;;;;;;6.20;5.60;;;24.60;46.00;;;;;;5003525;28;20465;-48
2022/07/30 10:51:47;;;;;;;8.87;4.93;;;24.60;45.70;;;;;;4987841;28;20952;-48
2022/07/30 10:54:35;;;;;;;6.23;5.73;;;24.60;45.70;;;;;;5003202;28;20461;-48
2022/07/30 10:57:09;;;;;;;7.80;6.07;;;24.60;45.70;;;;;;5001859;28;20480;-48
2022/07/30 11:00:11;;;;;;;7.23;5.07;;;24.60;45.50;;;;;;5003092;28;20497;-48
2022/07/30 11:03:12;;;;;;;7.43;6.30;;;24.60;45.60;;;;;;4995518;28;20475;-47
2022/07/30 11:05:45;;;;;;;5.83;5.33;;;24.60;45.20;;;;;;4989468;28;20478;-48
2022/07/30 11:08:35;;;;;;;9.33;5.30;;;24.60;45.40;;;;;;4997584;28;20465;-49
2022/07/30 11:11:05;;;;;;;7.03;6.30;;;24.70;45.30;;;;;;5010354;28;20456;-48
2022/07/30 11:13:56;;;;;;;6.13;5.53;;;24.70;44.90;;;;;;4987349;28;20817;-47
2022/07/30 11:16:46;;;;;;;5.73;5.23;;;24.70;45.00;;;;;;4993601;28;20457;-49
2022/07/30 11:19:21;;;;;;;7.77;5.80;;;24.70;45.00;;;;;;5008386;28;20472;-48
2022/07/30 11:22:24;;;;;;;6.20;5.27;;;24.70;44.90;;;;;;4991098;28;20476;-47
2022/07/30 11:24:52;;;;;;;6.93;5.40;;;24.60;44.90;;;;;;5001877;28;20551;-48
2022/07/30 11:27:37;;;;;;;6.73;5.90;;;24.70;46.00;;;;;;4996847;28;20470;-47
2022/07/30 11:30:34;;;;;;;6.67;5.83;;;24.70;44.70;;;;;;4998792;28;20843;-48
2022/07/30 11:33:23;;;;;;;4.53;4.10;;;24.70;44.70;;;;;;5003591;28;20440;-48
2022/07/30 11:36:09;;;;;;;6.27;5.17;;;24.70;44.60;;;;;;4990430;28;20472;-48
2022/07/30 11:38:58;;;;;;;6.73;5.20;;;24.70;44.50;;;;;;5005862;28;20464;-47
2022/07/30 11:41:34;;;;;;;7.20;4.87;;;24.70;44.50;;;;;;4993954;28;20441;-47
2022/07/30 11:44:28;;;;;;;5.90;5.40;;;24.70;44.30;;;;;;5000162;28;20973;-47
2022/07/30 11:46:56;;;;;;;8.17;4.87;;;24.70;44.30;;;;;;4987317;28;20532;-49
2022/07/30 11:49:25;;;;;;;5.67;4.80;;;24.70;44.10;;;;;;5004125;28;21045;-47
2022/07/30 11:51:55;;;;;;;5.50;5.00;;;24.70;44.20;;;;;;4986650;28;20936;-47
2022/07/30 11:54:24;;;;;;;6.23;4.70;;;24.70;44.10;;;;;;4990162;28;20457;-48
2022/07/30 11:56:56;;;;;;;5.17;4.63;;;24.70;44.00;;;;;;5006928;28;20998;-48
2022/07/30 11:59:31;;;;;;;8.30;4.70;;;24.70;44.10;;;;;;4988579;28;20476;-47
2022/07/30 12:02:00;;;;;;;6.37;4.33;;;24.70;43.80;;;;;;4989215;28;20458;-47
2022/07/30 12:04:30;;;;;;;5.13;4.73;;;24.70;44.10;;;;;;5007700;28;21128;-48
2022/07/30 12:06:59;;;;;;;5.17;4.30;;;24.70;44.00;;;;;;4990811;28;20983;-49
2022/07/30 12:09:28;;;;;;;5.43;4.93;;;24.70;44.00;;;;;;4989971;28;21037;-48
2022/07/30 12:12:02;;;;;;;5.10;3.97;;;24.70;43.70;;;;;;5001935;28;20895;-48
2022/07/30 12:14:37;;;;;;;5.30;4.40;;;24.70;43.90;;;;;;5001124;28;20563;-48
2022/07/30 12:17:07;;;;;;;5.20;4.70;;;24.70;43.70;;;;;;5005218;28;20457;-49
2022/07/30 12:19:44;;;;;;;4.30;3.90;;;24.70;44.00;;;;;;4993973;28;20886;-48
2022/07/30 12:22:16;;;;;;;5.33;4.03;;;24.70;44.00;;;;;;4992179;28;20445;-48
2022/07/30 12:24:45;;;;;;;7.37;5.20;;;24.70;44.00;;;;;;5005346;28;20552;-48
2022/07/30 12:27:13;;;;;;;5.17;4.37;;;24.70;45.20;;;;;;5004044;28;20478;-48
2022/07/30 12:29:41;;;;;;;6.63;4.00;;;24.70;43.80;;;;;;4993780;28;20877;-48
2022/07/30 12:32:18;;;;;;;4.90;4.40;;;24.70;43.60;;;;;;4984317;28;20541;-48
2022/07/30 12:34:55;;;;;;;5.63;4.50;;;24.70;43.60;;;;;;5000336;28;20476;-48
2022/07/30 12:37:25;;;;;;;7.07;4.47;;;24.80;43.70;;;;;;4987113;28;20860;-47
2022/07/30 12:40:06;;;;;;;5.00;4.50;;;24.80;43.60;;;;;;4998444;28;20515;-47
2022/07/30 12:42:51;;;;;;;5.07;4.00;;;24.70;43.50;;;;;;4994630;28;20468;-48
2022/07/30 12:45:29;;;;;;;4.40;4.00;;;24.70;43.40;;;;;;4988194;28;20666;-48
2022/07/30 12:48:17;;;;;;;4.20;3.80;;;24.80;43.50;;;;;;5005606;28;20476;-48
2022/07/30 12:50:46;;;;;;;4.20;3.77;;;24.80;43.60;;;;;;4991720;28;20521;-48
2022/07/30 12:53:16;;;;;;;4.70;4.30;;;24.80;43.50;;;;;;4996713;28;20978;-48
2022/07/30 12:55:45;;;;;;;4.23;3.83;;;24.80;43.50;;;;;;4984789;28;20501;-48
2022/07/30 12:58:13;;;;;;;3.90;3.53;;;24.80;43.50;;;;;;5009240;28;20449;-48
2022/07/30 13:00:51;;;;;;;4.23;3.83;;;24.80;43.50;;;;;;4994296;28;20536;-48
2022/07/30 13:03:22;;;;;;;4.20;3.80;;;24.80;43.50;;;;;;4997690;28;20548;-47
2022/07/30 13:05:52;;;;;;;3.90;3.60;;;24.80;43.30;;;;;;4988610;28;21020;-48
2022/07/30 13:08:49;;;;;;;5.80;3.80;;;24.80;43.30;;;;;;4993363;28;20483;-48
2022/07/30 13:11:18;;;;;;;4.33;3.83;;;24.80;43.30;;;;;;5004011;28;20476;-47
2022/07/30 13:13:48;;;;;;;4.63;3.70;;;24.80;44.40;;;;;;5003427;28;20454;-48
2022/07/30 13:16:17;;;;;;;5.10;3.60;;;24.80;43.40;;;;;;4999619;28;20492;-48
2022/07/30 13:18:46;;;;;;;4.23;3.83;;;24.90;43.40;;;;;;4997336;28;20466;-48
2022/07/30 13:21:16;;;;;;;4.20;3.40;;;24.90;43.50;;;;;;4988257;28;20549;-48
2022/07/30 13:23:45;;;;;;;3.70;3.40;;;24.90;43.40;;;;;;5005423;28;20445;-48
2022/07/30 13:26:15;;;;;;;3.60;3.17;;;24.90;43.20;;;;;;4992299;28;20458;-48
2022/07/30 13:28:45;;;;;;;3.70;3.40;;;24.90;43.20;;;;;;5004892;28;20500;-48